Terminal Aerodrome Forecast
Issued by NWS Charleston, SC

Home | Current Version | Previous Version | Text Only | Print | Product List | Glossary On
Versions: 1 2 3 4 5 6 7 8 9 10 11 12 13 14
546
FTUS42 KCHS 272321
TAFCHS
TAF
KCHS 272321Z 2800/2824 11008KT P6SM SKC
     FM280800 03004KT P6SM SCT025 BKN050
     FM281500 03010KT P6SM SCT025 BKN040
     FM282100 02012G19KT P6SM -RA SCT035 BKN080=

USA.gov is the U.S. government's official web portal to all federal, state and local government web resources and services.